Time;durP1;ratioP1;P1;durP2;ratioP2;P2;SDS_P1;SDS_P2;PMS_P1;PMS_P2;Temp;Humidity;BMP_temperature;BMP_pressure;BME280_temperature;BME280_humidity;BME280_pressure;Samples;Min_cycle;Max_cycle;Signal;HPM_P1;HPM_P2
2022/01/21 00:01:12;;;;;;;9.32;8.85;;;;;;;-1.08;100.00;100346.19;5017094;28;20029;-63
2022/01/21 00:03:39;;;;;;;9.85;9.35;;;;;;;-1.11;100.00;100349.81;5016512;28;20075;-64
2022/01/21 00:06:07;;;;;;;9.70;9.20;;;;;;;-1.14;100.00;100361.28;5015985;28;20034;-64
2022/01/21 00:08:38;;;;;;;9.30;8.85;;;;;;;-1.25;100.00;100363.78;5010118;28;20565;-64
2022/01/21 00:11:04;;;;;;;10.90;10.20;;;;;;;-1.26;100.00;100372.50;5002425;28;20040;-63
2022/01/21 00:13:36;;;;;;;9.60;9.10;;;;;;;-1.25;100.00;100376.81;5018485;28;20488;-62
2022/01/21 00:16:05;;;;;;;9.20;8.80;;;;;;;-1.20;100.00;100382.53;5018795;28;20496;-64
2022/01/21 00:18:35;;;;;;;9.80;9.27;;;;;;;-1.23;100.00;100387.94;5007141;28;20038;-63
2022/01/21 00:31:59;;;;;;;8.80;8.38;;;;;;;-1.50;100.00;100416.63;4996376;28;20389;-63
2022/01/21 00:34:24;;;;;;;9.30;8.80;;;;;;;-1.56;100.00;100426.59;5011395;28;20030;-63
2022/01/21 00:36:50;;;;;;;9.52;9.02;;;;;;;-1.60;100.00;100433.75;5011672;28;20026;-64
2022/01/21 00:39:19;;;;;;;10.35;9.75;;;;;;;-1.53;100.00;100442.00;5010084;28;20403;-64
2022/01/21 00:41:56;;;;;;;9.95;9.40;;;;;;;-1.52;100.00;100448.88;4999185;28;20038;-64
2022/01/21 00:44:22;;;;;;;9.70;9.20;;;;;;;-1.41;100.00;100456.78;5010921;28;20060;-64
2022/01/21 00:46:48;;;;;;;10.38;9.77;;;;;;;-1.40;100.00;100453.25;5014092;28;20404;-64
2022/01/21 00:49:15;;;;;;;9.60;9.10;;;;;;;-1.36;100.00;100465.16;5011691;28;20030;-64
2022/01/21 00:51:40;;;;;;;9.25;8.75;;;;;;;-1.58;100.00;100476.09;5011572;28;20030;-64
2022/01/21 00:54:06;;;;;;;9.13;8.73;;;;;;;-1.44;100.00;100483.03;5010351;28;20080;-64
2022/01/21 00:56:31;;;;;;;9.25;8.80;;;;;;;-1.29;100.00;100478.59;5011536;28;20022;-64
2022/01/21 00:58:57;;;;;;;8.70;8.30;;;;;;;-1.40;100.00;100477.53;5011617;28;20034;-63
2022/01/21 01:01:25;;;;;;;9.20;8.70;;;;;;;-1.46;100.00;100470.13;5012415;28;20026;-63
2022/01/21 01:03:51;;;;;;;9.15;8.65;;;;;;;-1.28;100.00;100475.88;5011436;28;20036;-64
2022/01/21 01:06:17;;;;;;;8.50;8.10;;;;;;;-1.28;100.00;100481.09;5011787;28;20401;-64
2022/01/21 01:08:43;;;;;;;9.95;9.35;;;;;;;-1.43;100.00;100458.69;5007673;28;20033;-64
2022/01/21 01:21:29;;;;;;;;;;;;;;;-1.81;100.00;100461.16;5011685;28;20033;-64
2022/01/21 01:29:22;;;;;;;9.07;8.68;;;;;;;-1.74;100.00;100459.81;5013392;28;20041;-64
2022/01/21 01:31:48;;;;;;;9.50;9.00;;;;;;;-1.59;100.00;100453.63;5028515;28;20021;-64
2022/01/21 01:34:14;;;;;;;9.40;8.90;;;;;;;-1.78;100.00;100440.97;5017816;28;20037;-64
2022/01/21 01:36:46;;;;;;;9.65;9.05;;;;;;;-1.75;100.00;100424.34;5012598;28;20475;-64
2022/01/21 01:41:49;;;;;;;9.40;8.90;;;;;;;-1.83;100.00;100393.66;5014725;28;20032;-64
2022/01/21 01:49:43;;;;;;;9.40;8.90;;;;;;;-1.81;100.00;100383.13;4999282;28;20029;-63
2022/01/21 01:52:14;;;;;;;9.63;9.13;;;;;;;-1.73;100.00;100383.47;5012821;28;20034;-63
2022/01/21 01:54:44;;;;;;;9.20;8.70;;;;;;;-1.82;100.00;100379.72;4998318;28;20018;-64
2022/01/21 01:57:10;;;;;;;9.55;9.05;;;;;;;-1.80;100.00;100384.81;5015677;28;20165;-63
2022/01/21 01:59:36;;;;;;;9.57;9.07;;;;;;;-1.75;100.00;100400.94;5013979;28;20108;-63
2022/01/21 02:02:05;;;;;;;9.95;9.35;;;;;;;-1.88;100.00;100381.88;5015801;28;20040;-64
2022/01/21 02:04:31;;;;;;;9.30;8.80;;;;;;;-1.84;100.00;100394.56;5015499;28;20029;-64
2022/01/21 02:06:57;;;;;;;10.05;9.45;;;;;;;-1.80;100.00;100411.63;5011022;28;20022;-64
2022/01/21 02:09:24;;;;;;;8.73;8.32;;;;;;;-1.78;100.00;100403.72;5014354;28;20018;-63
2022/01/21 02:11:51;;;;;;;9.35;8.85;;;;;;;-1.77;100.00;100414.03;5015409;28;20159;-64
2022/01/21 02:14:23;;;;;;;9.30;8.80;;;;;;;-1.70;100.00;100402.28;5024369;28;20083;-63
2022/01/21 02:22:18;;;;;;;10.02;9.43;;;;;;;-1.77;100.00;100406.22;5011325;28;20143;-63
2022/01/21 02:27:13;;;;;;;9.55;9.05;;;;;;;-1.90;100.00;100418.38;5013247;28;20049;-64
2022/01/21 02:29:50;;;;;;;9.30;8.80;;;;;;;-1.94;100.00;100419.47;4997167;28;20092;-64
2022/01/21 02:32:18;;;;;;;8.90;8.50;;;;;;;-1.97;100.00;100424.88;5014258;28;20033;-63
2022/01/21 02:34:45;;;;;;;9.45;8.95;;;;;;;-2.03;100.00;100428.69;5014747;28;20032;-64
2022/01/21 02:37:14;;;;;;;9.95;9.35;;;;;;;-2.16;100.00;100422.59;5012312;28;20069;-64
2022/01/21 02:39:40;;;;;;;9.15;8.65;;;;;;;-2.28;100.00;100421.63;5013857;28;20474;-65
2022/01/21 02:42:06;;;;;;;9.20;8.70;;;;;;;-2.37;100.00;100419.56;5013331;28;20128;-64
2022/01/21 02:44:31;;;;;;;9.38;8.88;;;;;;;-2.46;100.00;100416.72;5014966;28;20041;-63
2022/01/21 02:46:59;;;;;;;11.23;10.43;;;;;;;-2.57;100.00;100414.75;4997262;28;20061;-65
2022/01/21 02:49:26;;;;;;;9.10;8.70;;;;;;;-2.60;100.00;100423.56;5010490;28;20025;-64
2022/01/21 02:51:54;;;;;;;11.27;10.50;;;;;;;-2.70;100.00;100422.47;5012227;28;20108;-64
2022/01/21 02:54:20;;;;;;;9.55;9.05;;;;;;;-2.76;100.00;100427.22;5012916;28;20033;-63
2022/01/21 02:56:45;;;;;;;9.50;9.00;;;;;;;-2.77;100.00;100418.59;5013255;28;20037;-64
2022/01/21 02:59:14;;;;;;;9.30;8.80;;;;;;;-2.85;100.00;100405.22;5014649;28;20051;-64
2022/01/21 03:01:42;;;;;;;9.65;9.15;;;;;;;-2.99;100.00;100410.41;4995713;28;20053;-64
2022/01/21 03:04:13;;;;;;;10.23;9.63;;;;;;;-3.04;100.00;100407.25;5014431;28;20080;-63
2022/01/21 03:06:39;;;;;;;10.05;9.50;;;;;;;-3.18;100.00;100395.91;5010882;28;20113;-64
2022/01/21 03:09:07;;;;;;;9.77;9.27;;;;;;;-3.16;100.00;100425.22;5013106;28;20133;-63
2022/01/21 03:11:33;;;;;;;10.57;9.98;;;;;;;-3.21;100.00;100422.06;5013487;28;20032;-62
2022/01/21 03:13:58;;;;;;;9.98;9.45;;;;;;;-3.15;100.00;100415.69;5012316;28;20026;-64
2022/01/21 03:16:24;;;;;;;9.27;8.82;;;;;;;-3.21;100.00;100414.28;5007937;28;20489;-63
2022/01/21 03:18:50;;;;;;;9.20;8.70;;;;;;;-3.23;100.00;100421.31;5012651;28;20038;-64
2022/01/21 03:21:16;;;;;;;9.10;8.70;;;;;;;-3.23;100.00;100418.72;5012113;28;20119;-64
2022/01/21 03:23:46;;;;;;;9.48;8.98;;;;;;;-3.27;100.00;100418.97;5012140;28;20053;-63
2022/01/21 03:26:22;;;;;;;9.52;9.02;;;;;;;-3.20;100.00;100425.47;5012720;28;20049;-64
2022/01/21 03:28:50;;;;;;;9.63;9.13;;;;;;;-3.30;100.00;100424.34;5013427;28;20056;-63
2022/01/21 03:31:16;;;;;;;9.55;9.05;;;;;;;-3.25;100.00;100432.69;5014684;28;20580;-64
2022/01/21 03:33:42;;;;;;;9.57;9.07;;;;;;;-3.28;100.00;100436.31;5012684;28;20771;-63
2022/01/21 03:36:09;;;;;;;9.68;9.10;;;;;;;-3.18;100.00;100441.78;5010763;28;20026;-64
2022/01/21 03:38:35;;;;;;;8.85;8.43;;;;;;;-3.21;100.00;100441.97;5011510;28;20029;-64
2022/01/21 03:41:00;;;;;;;9.00;8.60;;;;;;;-3.29;100.00;100433.81;5034423;28;20042;-63
2022/01/21 03:43:26;;;;;;;9.43;8.93;;;;;;;-3.34;100.00;100431.47;5013834;28;20026;-63
2022/01/21 03:45:52;;;;;;;9.05;8.65;;;;;;;-3.36;100.00;100438.50;5012981;28;20396;-64
2022/01/21 03:48:19;;;;;;;9.48;8.98;;;;;;;-3.33;100.00;100438.31;5022569;28;20029;-64
2022/01/21 03:50:48;;;;;;;9.98;9.38;;;;;;;-3.37;100.00;100436.84;5010494;28;20029;-63
2022/01/21 03:53:14;;;;;;;9.00;8.60;;;;;;;-3.40;100.00;100442.19;5013286;28;20397;-63
2022/01/21 03:55:40;;;;;;;9.90;9.38;;;;;;;-3.44;100.00;100443.31;5011439;28;20034;-64
2022/01/21 03:58:09;;;;;;;9.68;9.18;;;;;;;-3.69;100.00;100403.19;5013315;28;20506;-63
2022/01/21 04:00:44;;;;;;;9.35;8.85;;;;;;;-3.54;100.00;100439.53;5013469;28;20040;-63
2022/01/21 04:03:10;;;;;;;9.63;9.13;;;;;;;-3.53;100.00;100444.63;5011186;28;20022;-63
2022/01/21 04:05:36;;;;;;;10.18;9.57;;;;;;;-3.57;100.00;100447.50;5011151;28;20034;-63
2022/01/21 04:08:04;;;;;;;9.20;8.70;;;;;;;-3.60;100.00;100456.28;5005591;28;20127;-65
2022/01/21 04:10:30;;;;;;;9.52;9.02;;;;;;;-3.64;100.00;100447.84;5012272;28;20146;-62
2022/01/21 04:12:56;;;;;;;10.27;9.68;;;;;;;-3.71;100.00;100456.88;5011678;28;20180;-63
2022/01/21 04:15:22;;;;;;;9.63;9.13;;;;;;;-3.72;100.00;100452.63;5010524;28;20378;-64
2022/01/21 04:17:48;;;;;;;9.80;9.30;;;;;;;-3.76;100.00;100460.66;5007436;28;20040;-64
2022/01/21 04:20:14;;;;;;;10.30;9.70;;;;;;;-3.80;100.00;100465.19;5006882;28;20113;-64
2022/01/21 04:22:40;;;;;;;11.43;10.68;;;;;;;-3.84;100.00;100470.59;5007596;28;20259;-64
2022/01/21 04:25:07;;;;;;;9.70;9.20;;;;;;;-3.90;100.00;100466.59;5008493;28;20477;-63
2022/01/21 04:27:32;;;;;;;10.50;9.88;;;;;;;-3.91;100.00;100470.09;5006451;28;20788;-64
2022/01/21 04:29:58;;;;;;;10.05;9.45;;;;;;;-3.98;100.00;100476.53;5002402;28;20029;-63
2022/01/21 04:32:24;;;;;;;10.95;10.27;;;;;;;-4.04;100.00;100469.09;5008920;28;20088;-63
2022/01/21 04:34:52;;;;;;;10.10;9.57;;;;;;;-4.08;100.00;100465.03;5011553;28;20034;-63
2022/01/21 04:37:17;;;;;;;10.07;9.48;;;;;;;-4.12;100.00;100466.09;5008455;28;20022;-64
2022/01/21 04:39:51;;;;;;;10.60;10.00;;;;;;;-4.17;100.00;100459.41;5002357;28;20038;-64
2022/01/21 04:47:38;;;;;;;10.32;9.73;;;;;;;-4.30;100.00;100454.97;5006250;28;20040;-64
2022/01/21 04:50:12;;;;;;;9.85;9.30;;;;;;;-4.24;100.00;100465.84;5000266;28;20038;-64
2022/01/21 04:52:38;;;;;;;10.43;9.82;;;;;;;-4.26;100.00;100474.59;5011036;28;20029;-63
2022/01/21 04:55:05;;;;;;;11.57;10.77;;;;;;;-4.29;100.00;100478.19;5006472;28;20121;-63
2022/01/21 04:57:30;;;;;;;10.82;10.13;;;;;;;-4.32;100.00;100478.38;5016186;28;20045;-64
2022/01/21 04:59:56;;;;;;;10.25;9.75;;;;;;;-4.58;100.00;100440.91;5016657;28;20026;-64
2022/01/21 05:02:23;;;;;;;10.27;9.68;;;;;;;-4.30;100.00;100481.69;5014985;28;20103;-63
2022/01/21 05:04:49;;;;;;;11.30;10.50;;;;;;;-4.32;100.00;100485.31;5013517;28;20445;-64
2022/01/21 05:07:19;;;;;;;10.98;10.27;;;;;;;-4.34;100.00;100485.34;5001623;28;20076;-64
2022/01/21 05:09:45;;;;;;;11.20;10.48;;;;;;;-4.29;100.00;100485.13;5009657;28;20042;-64
2022/01/21 05:12:13;;;;;;;11.05;10.35;;;;;;;-4.34;100.00;100482.78;5010365;28;20056;-66
2022/01/21 05:17:06;;;;;;;11.70;10.90;;;;;;;-4.39;100.00;100487.38;5011237;28;20022;-64
2022/01/21 05:19:31;;;;;;;10.55;9.85;;;;;;;-4.47;100.00;100498.13;5010722;28;20415;-64
2022/01/21 05:21:57;;;;;;;10.43;9.82;;;;;;;-4.48;100.00;100496.47;5011109;28;20050;-64
2022/01/21 05:24:22;;;;;;;10.50;9.90;;;;;;;-4.55;100.00;100492.53;4979993;28;20394;-63
2022/01/21 05:26:57;;;;;;;11.60;10.80;;;;;;;-4.56;100.00;100497.75;5005484;28;20462;-65
2022/01/21 05:29:26;;;;;;;10.07;9.57;;;;;;;-4.56;100.00;100502.94;5011044;28;20033;-64
2022/01/21 05:31:52;;;;;;;11.23;10.48;;;;;;;-4.60;100.00;100504.03;5007049;28;20062;-63
2022/01/21 05:34:18;;;;;;;11.90;11.05;;;;;;;-4.69;100.00;100496.75;5007070;28;20485;-63
2022/01/21 05:36:44;;;;;;;10.63;9.98;;;;;;;-4.69;100.00;100509.69;5014035;28;20512;-64
2022/01/21 05:39:11;;;;;;;10.65;10.05;;;;;;;-4.72;100.00;100508.91;5007341;28;20053;-63
2022/01/21 05:41:38;;;;;;;10.75;10.05;;;;;;;-4.67;100.00;100513.84;5007312;28;20028;-64
2022/01/21 05:44:12;;;;;;;10.35;9.75;;;;;;;-4.71;100.00;100527.84;5009867;28;20040;-62
2022/01/21 05:49:18;;;;;;;11.40;10.70;;;;;;;-4.72;100.00;100534.78;5011331;28;20115;-62
2022/01/21 05:51:46;;;;;;;11.43;10.63;;;;;;;-4.66;99.78;100544.00;5013676;28;20125;-63
2022/01/21 05:54:13;;;;;;;9.75;9.23;;;;;;;-4.69;99.19;100541.56;5016072;28;20032;-64
2022/01/21 05:56:39;;;;;;;10.55;9.95;;;;;;;-4.61;99.24;100554.13;5016484;28;20026;-62
2022/01/21 05:59:06;;;;;;;10.27;9.68;;;;;;;-4.66;98.25;100546.56;5014257;28;20033;-63
2022/01/21 06:01:33;;;;;;;10.95;10.25;;;;;;;-4.60;97.87;100554.03;5009103;28;20407;-64
2022/01/21 06:04:03;;;;;;;12.27;11.35;;;;;;;-4.51;97.42;100552.72;5002215;28;20155;-66
2022/01/21 06:06:30;;;;;;;11.85;10.98;;;;;;;-4.40;95.57;100554.78;5004418;28;20146;-68
2022/01/21 06:08:55;;;;;;;10.35;9.65;;;;;;;-3.49;93.02;100556.81;5013906;28;20507;-67
2022/01/21 06:11:21;;;;;;;9.13;8.63;;;;;;;-2.67;88.96;100564.25;5010752;28;20061;-67
2022/01/21 06:13:49;;;;;;;9.07;8.48;;;;;;;-2.24;86.20;100562.56;5014801;28;20108;-66
2022/01/21 06:16:15;;;;;;;8.65;8.10;;;;;;;-1.78;84.13;100572.75;5014123;28;20028;-66
2022/01/21 06:18:41;;;;;;;8.68;8.10;;;;;;;-1.22;81.09;100570.97;5004113;28;20091;-66
2022/01/21 06:21:06;;;;;;;6.90;6.53;;;;;;;-0.64;78.40;100583.63;5014947;28;20481;-66
2022/01/21 06:23:32;;;;;;;6.85;6.50;;;;;;;-0.16;75.66;100578.63;4997817;28;20048;-65
2022/01/21 06:25:57;;;;;;;7.13;6.75;;;;;;;0.31;72.15;100586.75;5014433;28;20049;-66
2022/01/21 06:28:24;;;;;;;6.93;6.57;;;;;;;0.86;70.63;100583.63;5014209;28;20030;-66
2022/01/21 06:30:50;;;;;;;7.35;6.95;;;;;;;2.06;65.85;100584.22;5014915;28;20030;-66
2022/01/21 06:33:17;;;;;;;7.22;6.82;;;;;;;4.18;55.76;100580.84;5015731;28;20463;-65
2022/01/21 06:35:45;;;;;;;8.13;7.65;;;;;;;5.83;48.95;100582.63;5011455;28;20057;-67
2022/01/21 06:38:11;;;;;;;7.65;7.25;;;;;;;7.18;44.37;100589.84;5012177;28;20040;-66
2022/01/21 06:40:36;;;;;;;7.03;6.72;;;;;;;8.06;41.16;100584.53;5015952;28;20034;-66
2022/01/21 06:43:03;;;;;;;7.30;6.97;;;;;;;9.13;38.79;100587.41;5013460;28;20108;-66
2022/01/21 06:45:29;;;;;;;8.10;7.70;;;;;;;9.51;37.00;100574.50;5013094;28;20030;-67
2022/01/21 06:47:58;;;;;;;7.25;6.95;;;;;;;10.28;34.55;100596.06;5027644;28;20037;-66
2022/01/21 06:50:24;;;;;;;8.15;7.75;;;;;;;10.50;33.86;100602.47;5027589;28;20026;-67
2022/01/21 06:52:49;;;;;;;8.35;7.95;;;;;;;11.46;32.80;100601.22;5019725;28;20377;-66
2022/01/21 06:55:14;;;;;;;7.97;7.57;;;;;;;11.29;32.23;100600.50;5014979;28;20365;-66
2022/01/21 06:57:40;;;;;;;8.35;7.95;;;;;;;12.74;29.30;100599.22;5028839;28;20065;-66
2022/01/21 07:00:08;;;;;;;8.23;7.82;;;;;;;12.74;28.51;100593.88;5012390;28;20038;-66
2022/01/21 07:02:37;;;;;;;8.80;8.40;;;;;;;12.33;28.83;100591.72;5013568;28;20025;-67
2022/01/21 07:05:04;;;;;;;8.10;7.70;;;;;;;13.31;27.42;100594.94;4996140;28;20060;-66
2022/01/21 07:07:30;;;;;;;7.72;7.43;;;;;;;12.70;27.88;100592.59;5012965;28;20393;-67
2022/01/21 07:09:56;;;;;;;8.88;8.48;;;;;;;12.72;27.96;100594.06;5013971;28;20033;-66
2022/01/21 07:12:24;;;;;;;7.90;7.50;;;;;;;14.42;25.31;100602.09;5013656;28;20025;-66
2022/01/21 07:14:49;;;;;;;7.53;7.22;;;;;;;15.03;25.08;100620.81;5007945;28;20022;-66
2022/01/21 07:17:15;;;;;;;7.80;7.50;;;;;;;14.42;25.53;100615.44;5006979;28;20029;-65
2022/01/21 07:19:40;;;;;;;9.32;8.88;;;;;;;14.44;24.96;100618.72;5012643;28;20029;-66
2022/01/21 07:22:08;;;;;;;7.55;7.25;;;;;;;14.83;24.68;100609.25;5012253;28;20064;-66
2022/01/21 07:24:33;;;;;;;8.35;7.95;;;;;;;15.66;23.70;100617.88;5014030;28;20086;-66
2022/01/21 07:26:59;;;;;;;8.20;7.80;;;;;;;15.80;23.63;100618.69;5010823;28;20125;-66
2022/01/21 07:29:25;;;;;;;8.30;7.90;;;;;;;14.90;23.71;100626.13;5013043;28;20064;-67
2022/01/21 07:31:54;;;;;;;7.88;7.57;;;;;;;15.09;23.17;100637.91;5010367;28;20066;-67
2022/01/21 07:34:23;;;;;;;8.57;8.18;;;;;;;16.50;22.34;100625.13;5012812;28;20100;-67
2022/01/21 07:36:49;;;;;;;8.10;7.70;;;;;;;16.19;23.45;100629.34;5013615;28;20385;-67
2022/01/21 07:39:15;;;;;;;8.55;8.15;;;;;;;16.68;22.70;100624.47;5009574;28;20030;-67
2022/01/21 07:41:40;;;;;;;8.05;7.72;;;;;;;16.26;23.18;100629.34;5028177;28;20053;-67
2022/01/21 07:44:06;;;;;;;8.23;7.82;;;;;;;17.08;21.23;100631.31;4995266;28;20037;-68
2022/01/21 07:46:31;;;;;;;8.45;8.05;;;;;;;16.94;21.59;100626.22;5014939;28;20037;-68
2022/01/21 07:48:59;;;;;;;8.20;7.80;;;;;;;16.66;22.08;100629.19;5017043;28;20396;-66
2022/01/21 07:51:26;;;;;;;8.20;7.80;;;;;;;16.69;21.93;100626.13;5013420;28;20033;-66
2022/01/21 07:53:52;;;;;;;8.10;7.72;;;;;;;16.12;21.67;100628.53;5012040;28;20416;-67
2022/01/21 07:56:20;;;;;;;8.50;8.10;;;;;;;14.84;23.00;100629.63;5000949;28;20042;-67
2022/01/21 07:58:45;;;;;;;8.32;7.93;;;;;;;15.95;21.77;100643.38;5002295;28;20064;-68
2022/01/21 08:01:11;;;;;;;8.88;8.48;;;;;;;15.27;22.10;100642.66;5004034;28;20057;-67
2022/01/21 08:03:36;;;;;;;8.65;8.25;;;;;;;15.16;22.48;100649.44;5005274;28;20030;-67
2022/01/21 08:06:02;;;;;;;8.23;7.82;;;;;;;15.09;22.55;100654.75;5000047;28;20381;-68
2022/01/21 08:08:27;;;;;;;8.40;8.00;;;;;;;15.35;22.35;100659.34;5007069;28;20033;-68
2022/01/21 08:10:54;;;;;;;8.80;8.40;;;;;;;14.51;22.60;100654.31;5004149;28;20092;-67
2022/01/21 08:13:20;;;;;;;8.05;7.72;;;;;;;14.97;22.72;100666.22;5005740;28;20540;-67
2022/01/21 08:15:48;;;;;;;8.45;8.05;;;;;;;16.00;21.35;100670.31;5009043;28;20065;-67
2022/01/21 08:18:15;;;;;;;8.40;8.00;;;;;;;15.01;22.31;100662.13;5009444;28;20038;-67
2022/01/21 08:20:45;;;;;;;8.25;7.85;;;;;;;14.36;23.38;100658.91;4983116;28;20433;-67
2022/01/21 08:23:12;;;;;;;7.90;7.60;;;;;;;15.46;22.54;100668.63;5003826;28;20512;-69
2022/01/21 08:25:41;;;;;;;7.88;7.57;;;;;;;14.03;22.66;100664.03;5007130;28;20069;-69
2022/01/21 08:28:06;;;;;;;8.68;8.27;;;;;;;15.28;21.93;100666.53;4981278;28;20032;-68
2022/01/21 08:30:33;;;;;;;8.85;8.45;;;;;;;15.36;21.60;100669.03;5006242;28;20026;-69
2022/01/21 08:32:59;;;;;;;8.38;7.97;;;;;;;15.68;21.81;100667.44;5005587;28;20037;-67
2022/01/21 08:35:25;;;;;;;8.60;8.20;;;;;;;14.84;22.28;100657.16;5006449;28;20106;-67
2022/01/21 08:37:53;;;;;;;8.07;7.72;;;;;;;15.30;22.49;100669.00;5002207;28;20121;-68
2022/01/21 08:40:21;;;;;;;8.75;8.35;;;;;;;14.46;22.50;100662.06;5002288;28;20087;-68
2022/01/21 08:42:47;;;;;;;7.85;7.55;;;;;;;15.86;20.79;100668.69;4988110;28;20444;-69
2022/01/21 08:45:12;;;;;;;8.63;8.23;;;;;;;15.59;21.09;100674.00;5006414;28;20031;-68
2022/01/21 08:47:40;;;;;;;9.30;8.88;;;;;;;15.92;20.84;100659.81;5009919;28;20022;-68
2022/01/21 08:50:09;;;;;;;8.85;8.45;;;;;;;15.23;21.15;100665.50;5000365;28;20037;-69
2022/01/21 08:52:37;;;;;;;7.90;7.60;;;;;;;15.31;21.17;100673.31;5003688;28;20026;-68
2022/01/21 08:55:08;;;;;;;8.63;8.23;;;;;;;15.66;21.60;100666.84;5003928;28;20049;-67
2022/01/21 08:57:36;;;;;;;8.60;8.20;;;;;;;15.81;21.16;100669.31;5003002;28;20118;-68
2022/01/21 09:00:05;;;;;;;9.07;8.68;;;;;;;15.11;22.14;100663.38;5004896;28;20048;-70
2022/01/21 09:02:30;;;;;;;8.48;8.07;;;;;;;14.85;21.02;100655.28;5010293;28;20120;-66
2022/01/21 09:04:56;;;;;;;8.10;7.70;;;;;;;15.24;21.31;100667.94;5002977;28;20044;-68
2022/01/21 09:07:22;;;;;;;8.52;8.13;;;;;;;15.38;21.08;100674.16;5003979;28;20018;-70
2022/01/21 09:09:47;;;;;;;8.48;8.07;;;;;;;15.00;21.22;100666.66;5010275;28;20088;-69
2022/01/21 09:12:12;;;;;;;9.52;9.02;;;;;;;15.44;20.74;100676.03;5009688;28;20034;-69
2022/01/21 09:14:38;;;;;;;8.25;7.85;;;;;;;16.20;20.90;100673.81;5001982;28;20054;-67
2022/01/21 09:17:04;;;;;;;8.95;8.55;;;;;;;15.00;20.58;100665.84;5010601;28;20088;-67
2022/01/21 09:19:29;;;;;;;8.15;7.75;;;;;;;15.86;19.91;100669.50;5007184;28;20032;-65
2022/01/21 09:21:56;;;;;;;8.77;8.38;;;;;;;14.28;21.67;100667.06;5012143;28;20033;-65
2022/01/21 09:24:22;;;;;;;8.65;8.25;;;;;;;14.67;21.15;100655.00;5003335;28;20030;-66
2022/01/21 09:26:48;;;;;;;8.20;7.80;;;;;;;14.82;21.31;100647.66;5004827;28;20045;-65
2022/01/21 09:29:14;;;;;;;8.00;7.60;;;;;;;15.77;20.56;100648.50;5012369;28;20022;-65
2022/01/21 09:31:40;;;;;;;8.48;8.07;;;;;;;15.72;20.86;100647.28;5007692;28;20505;-67
2022/01/21 09:34:06;;;;;;;8.75;8.35;;;;;;;15.03;20.54;100644.88;4998920;28;20038;-65
2022/01/21 09:36:35;;;;;;;8.27;7.88;;;;;;;14.88;20.67;100642.34;5008857;28;20038;-65
2022/01/21 09:39:01;;;;;;;8.07;7.68;;;;;;;13.28;23.05;100633.41;5013570;28;20033;-65
2022/01/21 09:41:28;;;;;;;8.20;7.80;;;;;;;9.29;27.19;100631.59;5013929;28;20038;-66
2022/01/21 09:43:55;;;;;;;8.30;7.90;;;;;;;8.27;28.55;100634.38;5013133;28;20473;-66
2022/01/21 09:46:27;;;;;;;8.52;8.13;;;;;;;7.51;29.48;100636.81;5009741;28;20100;-66
2022/01/21 09:49:06;;;;;;;8.95;8.48;;;;;;;7.38;29.94;100627.47;5011478;28;20460;-66
2022/01/21 09:51:36;;;;;;;9.57;9.07;;;;;;;7.15;31.53;100627.09;5014370;28;20026;-66
2022/01/21 09:54:05;;;;;;;10.10;9.50;;;;;;;6.58;31.49;100620.34;5010545;28;20404;-66
2022/01/21 09:56:32;;;;;;;9.40;8.90;;;;;;;6.30;31.90;100619.50;5010450;28;20041;-66
2022/01/21 09:58:59;;;;;;;9.88;9.27;;;;;;;5.94;32.85;100616.72;5010144;28;20021;-66
2022/01/21 10:01:26;;;;;;;9.30;8.77;;;;;;;5.43;33.69;100622.28;5007357;28;20064;-65
2022/01/21 10:03:52;;;;;;;9.40;8.90;;;;;;;4.71;34.92;100605.91;5013774;28;20030;-65
2022/01/21 10:06:27;;;;;;;9.82;9.23;;;;;;;5.34;33.66;100604.72;5013869;28;20038;-65
2022/01/21 10:08:55;;;;;;;9.07;8.57;;;;;;;4.87;34.38;100600.13;4995989;28;20447;-66
2022/01/21 10:11:21;;;;;;;9.35;8.85;;;;;;;4.77;34.38;100588.75;5010945;28;20030;-65
2022/01/21 10:13:50;;;;;;;8.98;8.50;;;;;;;4.78;35.74;100586.97;5009441;28;20030;-65
2022/01/21 10:16:16;;;;;;;8.60;8.20;;;;;;;4.36;36.10;100582.72;5011472;28;20030;-65
2022/01/21 10:18:58;;;;;;;10.15;9.55;;;;;;;4.24;34.83;100575.91;5014050;28;20034;-65
2022/01/21 10:21:35;;;;;;;9.00;8.50;;;;;;;4.09;35.75;100579.84;5012686;28;20029;-64
2022/01/21 10:24:07;;;;;;;9.93;9.32;;;;;;;4.12;36.89;100572.53;5007102;28;20037;-65
2022/01/21 10:26:39;;;;;;;10.32;9.63;;;;;;;3.80;36.50;100566.56;5010807;28;20041;-66
2022/01/21 10:29:07;;;;;;;9.02;8.52;;;;;;;3.82;36.62;100564.69;5014421;28;20048;-64
2022/01/21 10:31:32;;;;;;;9.23;8.73;;;;;;;3.57;37.06;100568.50;5011835;28;20022;-64
2022/01/21 10:34:04;;;;;;;8.63;8.18;;;;;;;3.55;37.97;100573.91;5001965;28;20029;-65
2022/01/21 10:36:33;;;;;;;9.38;8.80;;;;;;;3.49;37.72;100573.56;5010153;28;20687;-65
2022/01/21 10:39:27;;;;;;;9.43;8.90;;;;;;;3.59;38.09;100572.66;5009317;28;20037;-65
2022/01/21 10:41:53;;;;;;;9.45;8.85;;;;;;;3.84;37.66;100575.88;5008593;28;20034;-65
2022/01/21 10:44:19;;;;;;;10.40;9.70;;;;;;;3.16;37.05;100562.31;5003385;28;20036;-65
2022/01/21 10:47:02;;;;;;;9.50;8.90;;;;;;;3.23;37.16;100567.84;5009386;28;20555;-65
2022/01/21 10:49:30;;;;;;;9.30;8.75;;;;;;;3.45;38.09;100552.03;5010963;28;20045;-65
2022/01/21 10:51:55;;;;;;;9.52;8.95;;;;;;;3.50;38.92;100565.56;5008956;28;20033;-65
2022/01/21 10:54:26;;;;;;;9.35;8.85;;;;;;;3.12;38.89;100573.16;5007948;28;20021;-65
2022/01/21 10:57:11;;;;;;;9.20;8.70;;;;;;;3.04;38.57;100565.94;5001707;28;20080;-65
2022/01/21 10:59:59;;;;;;;8.88;8.38;;;;;;;3.14;38.08;100563.38;5007513;28;20038;-66
2022/01/21 11:02:33;;;;;;;10.05;9.45;;;;;;;3.07;38.41;100547.31;4999839;28;20129;-66
2022/01/21 11:05:02;;;;;;;8.48;8.00;;;;;;;3.05;38.33;100546.63;4999165;28;20030;-66
2022/01/21 11:07:45;;;;;;;9.13;8.63;;;;;;;3.05;38.93;100541.38;4999089;28;20088;-67
2022/01/21 11:10:40;;;;;;;8.73;8.23;;;;;;;2.98;39.40;100543.66;5009788;28;20033;-65
2022/01/21 11:13:11;;;;;;;9.73;9.13;;;;;;;3.37;38.64;100533.47;5003916;28;20145;-64
2022/01/21 11:15:41;;;;;;;10.07;9.43;;;;;;;3.15;38.59;100528.34;5003851;28;20124;-65
2022/01/21 11:18:09;;;;;;;9.15;8.65;;;;;;;3.05;38.80;100530.91;5009282;28;20057;-65
2022/01/21 11:20:39;;;;;;;9.27;8.77;;;;;;;2.80;37.61;100529.47;5010952;28;20038;-65
2022/01/21 11:23:06;;;;;;;9.68;9.07;;;;;;;2.89;38.90;100522.63;5011997;28;20053;-65
2022/01/21 11:26:01;;;;;;;9.95;9.35;;;;;;;2.74;38.10;100516.84;5010944;28;20485;-66
2022/01/21 11:28:49;;;;;;;10.55;9.85;;;;;;;2.85;38.78;100505.50;5007778;28;20084;-66
2022/01/21 11:31:23;;;;;;;10.05;9.43;;;;;;;3.02;37.23;100499.72;4997776;28;20030;-66
2022/01/21 11:33:51;;;;;;;9.80;9.20;;;;;;;2.92;36.91;100517.13;5010866;28;20030;-67
2022/01/21 11:36:18;;;;;;;8.93;8.43;;;;;;;2.70;35.95;100490.06;5008583;28;20033;-66
2022/01/21 11:38:44;;;;;;;9.52;8.93;;;;;;;3.09;36.38;100503.50;5003008;28;20186;-64
2022/01/21 11:41:11;;;;;;;8.80;8.30;;;;;;;2.89;36.40;100502.50;5004256;28;20057;-64
2022/01/21 11:43:38;;;;;;;9.07;8.57;;;;;;;3.07;36.70;100494.06;5011222;28;20042;-63
2022/01/21 11:48:55;;;;;;;10.52;9.82;;;;;;;3.20;36.49;100492.09;5011584;28;20029;-63
2022/01/21 11:51:24;;;;;;;9.60;9.00;;;;;;;3.37;35.78;100486.25;5007066;28;20034;-64
2022/01/21 11:53:58;;;;;;;9.05;8.55;;;;;;;3.26;35.54;100494.22;5003988;28;20400;-66
2022/01/21 11:56:47;;;;;;;10.02;9.32;;;;;;;3.09;34.82;100484.31;5009381;28;20481;-66
2022/01/21 11:59:35;;;;;;;9.00;8.50;;;;;;;3.09;35.49;100489.56;5001201;28;20467;-66
2022/01/21 12:02:15;;;;;;;9.35;8.77;;;;;;;3.20;35.41;100486.84;4999257;28;20108;-65
2022/01/21 12:04:48;;;;;;;9.38;8.82;;;;;;;3.14;34.58;100488.19;5026033;28;20038;-66
2022/01/21 12:07:36;;;;;;;9.35;8.75;;;;;;;3.21;35.28;100476.25;5004142;28;20018;-66
2022/01/21 12:10:05;;;;;;;11.43;10.57;;;;;;;3.11;35.66;100479.78;5008719;28;20036;-65
2022/01/21 12:12:52;;;;;;;10.00;9.32;;;;;;;3.11;35.25;100487.63;5023320;28;20045;-67
2022/01/21 12:18:38;;;;;;;9.25;8.70;;;;;;;3.47;35.47;100479.31;5007680;28;20050;-66
2022/01/21 12:21:25;;;;;;;10.02;9.32;;;;;;;3.42;35.38;100468.34;5007247;28;20050;-65
2022/01/21 12:23:50;;;;;;;9.40;8.80;;;;;;;3.49;34.78;100473.91;5001892;28;20038;-66
2022/01/21 12:26:17;;;;;;;9.30;8.75;;;;;;;3.41;35.79;100463.25;5007074;28;20073;-66